Time;durP1;ratioP1;P1;durP2;ratioP2;P2;SDS_P1;SDS_P2;PMS_P1;PMS_P2;Temp;Humidity;BMP_temperature;BMP_pressure;BME280_temperature;BME280_humidity;BME280_pressure;Samples;Min_cycle;Max_cycle;Signal;HPM_P1;HPM_P2
2023/12/20 00:01:04;;;;;;;76.68;10.38;;;;;;;;;;5033961;28;20061;-35
2023/12/20 00:03:31;;;;;;;71.45;9.85;;;;;;;;;;5033034;28;20104;-37
2023/12/20 00:05:58;;;;;;;66.65;9.15;;;;;;;;;;5025367;28;20073;-38
2023/12/20 00:08:25;;;;;;;65.40;8.75;;;;;;;;;;5031524;28;20057;-37
2023/12/20 00:10:52;;;;;;;58.58;9.25;;;;;;;;;;5033023;28;20084;-38
2023/12/20 00:13:19;;;;;;;51.58;8.73;;;;;;;;;;5032739;28;20469;-38
2023/12/20 00:15:46;;;;;;;59.80;8.30;;;;;;;;;;5033211;28;20135;-38
2023/12/20 00:18:14;;;;;;;71.15;8.18;;;;;;;;;;5032741;28;20030;-38
2023/12/20 00:20:41;;;;;;;54.67;7.95;;;;;;;;;;5031040;28;20487;-38
2023/12/20 00:23:08;;;;;;;43.85;7.93;;;;;;;;;;5032610;28;20116;-37
2023/12/20 00:25:35;;;;;;;55.78;8.02;;;;;;;;;;5033255;28;20037;-38
2023/12/20 00:28:02;;;;;;;56.17;8.38;;;;;;;;;;5032842;28;20030;-38
2023/12/20 00:30:29;;;;;;;46.47;7.57;;;;;;;;;;5033639;28;20203;-37
2023/12/20 00:32:57;;;;;;;56.38;7.78;;;;;;;;;;5032796;28;20029;-38
2023/12/20 00:35:24;;;;;;;58.30;7.78;;;;;;;;;;5044164;28;20438;-39
2023/12/20 00:37:51;;;;;;;48.70;7.53;;;;;;;;;;5039376;28;20028;-37
2023/12/20 00:40:18;;;;;;;49.40;7.80;;;;;;;;;;5053292;28;20044;-37
2023/12/20 00:42:46;;;;;;;44.80;7.10;;;;;;;;;;5052603;28;20071;-39
2023/12/20 00:45:14;;;;;;;44.85;6.72;;;;;;;;;;5040989;28;20562;-38
2023/12/20 00:47:41;;;;;;;48.03;7.35;;;;;;;;;;5038865;28;20415;-41
2023/12/20 00:50:09;;;;;;;31.40;6.32;;;;;;;;;;5016854;28;20064;-43
2023/12/20 00:52:36;;;;;;;41.38;7.00;;;;;;;;;;5052756;28;20102;-40
2023/12/20 00:55:03;;;;;;;41.92;7.63;;;;;;;;;;5052622;28;20040;-40
2023/12/20 00:57:31;;;;;;;42.10;6.88;;;;;;;;;;5052718;28;20037;-38
2023/12/20 00:59:58;;;;;;;30.67;6.32;;;;;;;;;;5052728;28;20033;-38
2023/12/20 01:02:25;;;;;;;34.83;6.60;;;;;;;;;;5052717;28;20032;-38
2023/12/20 01:04:51;;;;;;;30.73;6.18;;;;;;;;;;5052048;28;20390;-38
2023/12/20 01:07:18;;;;;;;44.85;7.22;;;;;;;;;;5039853;28;20542;-38
2023/12/20 01:09:45;;;;;;;39.83;6.50;;;;;;;;;;5049770;28;20064;-38
2023/12/20 01:12:12;;;;;;;36.40;6.05;;;;;;;;;;5052599;28;20542;-39
2023/12/20 01:14:39;;;;;;;33.38;5.80;;;;;;;;;;5023754;28;20087;-39
2023/12/20 01:17:06;;;;;;;35.00;5.95;;;;;;;;;;5052089;28;20703;-40
2023/12/20 01:19:33;;;;;;;29.70;5.88;;;;;;;;;;5052629;28;20112;-38
2023/12/20 01:22:00;;;;;;;27.13;5.47;;;;;;;;;;5052166;28;20029;-37
2023/12/20 01:24:27;;;;;;;32.90;6.00;;;;;;;;;;5051907;28;20102;-37
2023/12/20 01:26:54;;;;;;;29.45;5.05;;;;;;;;;;5051798;28;20035;-39
2023/12/20 01:29:21;;;;;;;30.08;5.22;;;;;;;;;;5051605;28;20045;-40
2023/12/20 01:31:48;;;;;;;39.47;5.85;;;;;;;;;;5047083;28;20033;-39
2023/12/20 01:34:16;;;;;;;28.83;5.75;;;;;;;;;;5051453;28;20048;-39
2023/12/20 01:36:44;;;;;;;28.58;6.13;;;;;;;;;;5050363;28;20070;-40
2023/12/20 01:39:11;;;;;;;39.65;6.65;;;;;;;;;;5047306;28;20060;-40
2023/12/20 01:41:38;;;;;;;29.27;5.85;;;;;;;;;;5051648;28;20032;-40
2023/12/20 01:44:05;;;;;;;30.45;6.25;;;;;;;;;;5050282;28;20498;-40
2023/12/20 01:46:32;;;;;;;25.70;5.03;;;;;;;;;;5051324;28;20072;-39
2023/12/20 01:48:59;;;;;;;52.17;7.28;;;;;;;;;;5042629;28;20049;-45
2023/12/20 01:51:27;;;;;;;50.00;7.80;;;;;;;;;;5047491;28;20525;-38
2023/12/20 01:53:55;;;;;;;34.75;5.55;;;;;;;;;;5046219;28;20029;-39
2023/12/20 01:56:22;;;;;;;45.92;6.68;;;;;;;;;;5051318;28;20504;-39
2023/12/20 01:58:49;;;;;;;62.50;7.63;;;;;;;;;;5051050;28;20031;-39
2023/12/20 02:01:16;;;;;;;58.88;17.08;;;;;;;;;;5051476;28;20087;-39
2023/12/20 02:03:43;;;;;;;59.97;17.08;;;;;;;;;;5049464;28;20509;-39
2023/12/20 02:06:10;;;;;;;69.82;23.90;;;;;;;;;;5051398;28;20039;-39
2023/12/20 02:08:37;;;;;;;138.88;45.97;;;;;;;;;;5047017;28;20048;-38
2023/12/20 02:11:05;;;;;;;131.73;35.38;;;;;;;;;;5044944;28;20056;-41
2023/12/20 02:13:32;;;;;;;192.25;57.83;;;;;;;;;;5032903;28;20037;-37
2023/12/20 02:15:59;;;;;;;140.32;40.97;;;;;;;;;;5049844;28;20040;-38
2023/12/20 02:18:26;;;;;;;172.57;52.15;;;;;;;;;;5051083;28;20025;-37
2023/12/20 02:20:53;;;;;;;175.40;52.72;;;;;;;;;;5050903;28;20364;-37
2023/12/20 02:23:20;;;;;;;155.18;47.90;;;;;;;;;;5051065;28;20437;-37
2023/12/20 02:25:47;;;;;;;151.43;48.50;;;;;;;;;;5048639;28;20036;-37
2023/12/20 02:28:14;;;;;;;148.02;45.90;;;;;;;;;;5050759;28;20043;-37
2023/12/20 02:30:41;;;;;;;147.88;41.10;;;;;;;;;;5051310;28;20037;-37
2023/12/20 02:33:11;;;;;;;121.78;36.53;;;;;;;;;;5051083;28;20033;-37
2023/12/20 02:35:38;;;;;;;119.68;36.75;;;;;;;;;;5050714;28;20066;-37
2023/12/20 02:38:05;;;;;;;128.82;40.42;;;;;;;;;;5035579;28;20096;-37
2023/12/20 02:40:33;;;;;;;115.75;36.97;;;;;;;;;;5030443;28;20064;-38
2023/12/20 02:43:00;;;;;;;115.85;37.70;;;;;;;;;;5050788;28;20482;-37
2023/12/20 02:45:27;;;;;;;105.57;37.15;;;;;;;;;;5050323;28;20041;-38
2023/12/20 02:47:54;;;;;;;114.30;38.72;;;;;;;;;;5050744;28;20092;-38
2023/12/20 02:50:21;;;;;;;102.30;32.65;;;;;;;;;;5046894;28;20040;-39
2023/12/20 02:52:48;;;;;;;94.82;33.42;;;;;;;;;;5029775;28;20041;-38
2023/12/20 02:55:15;;;;;;;90.22;31.90;;;;;;;;;;5031521;28;20037;-39
2023/12/20 02:57:42;;;;;;;93.20;33.17;;;;;;;;;;5031438;28;20484;-38
2023/12/20 03:00:10;;;;;;;78.70;28.77;;;;;;;;;;5027981;28;20091;-38
2023/12/20 03:02:37;;;;;;;73.68;28.77;;;;;;;;;;5021372;28;20423;-39
2023/12/20 03:05:05;;;;;;;68.78;25.50;;;;;;;;;;5029889;28;20030;-39
2023/12/20 03:07:32;;;;;;;76.57;27.15;;;;;;;;;;5025075;28;20029;-39
2023/12/20 03:09:59;;;;;;;63.45;24.73;;;;;;;;;;5030829;28;20041;-38
2023/12/20 03:12:26;;;;;;;61.15;24.45;;;;;;;;;;5031316;28;20167;-38
2023/12/20 03:14:53;;;;;;;65.20;24.75;;;;;;;;;;5031294;28;20060;-41
2023/12/20 03:17:20;;;;;;;69.18;24.15;;;;;;;;;;5031176;28;20060;-38
2023/12/20 03:19:47;;;;;;;58.40;23.15;;;;;;;;;;5031238;28;20246;-38
2023/12/20 03:22:14;;;;;;;51.97;18.20;;;;;;;;;;5031156;28;20045;-39
2023/12/20 03:24:41;;;;;;;56.75;21.50;;;;;;;;;;5030940;28;20029;-38
2023/12/20 03:27:08;;;;;;;47.78;19.20;;;;;;;;;;5030961;28;20029;-38
2023/12/20 03:29:35;;;;;;;51.33;19.75;;;;;;;;;;5031150;28;20113;-38
2023/12/20 03:32:02;;;;;;;57.38;22.77;;;;;;;;;;5034209;28;20096;-38
2023/12/20 03:34:29;;;;;;;57.38;20.27;;;;;;;;;;5034782;28;20030;-38
2023/12/20 03:36:56;;;;;;;42.00;17.10;;;;;;;;;;5034874;28;20108;-38
2023/12/20 03:39:23;;;;;;;40.63;15.25;;;;;;;;;;5026873;28;20033;-38
2023/12/20 03:41:50;;;;;;;42.08;15.70;;;;;;;;;;5034776;28;20040;-38
2023/12/20 03:44:17;;;;;;;40.38;15.00;;;;;;;;;;5034655;28;20412;-38
2023/12/20 03:46:45;;;;;;;35.25;12.40;;;;;;;;;;5034598;28;20049;-38
2023/12/20 03:49:12;;;;;;;37.80;13.20;;;;;;;;;;5034428;28;20141;-38
2023/12/20 03:51:39;;;;;;;34.05;13.45;;;;;;;;;;5023267;28;20503;-38
2023/12/20 03:54:06;;;;;;;39.40;13.77;;;;;;;;;;5014639;28;20030;-38
2023/12/20 03:56:33;;;;;;;34.47;14.02;;;;;;;;;;5014778;28;20029;-39
2023/12/20 03:59:00;;;;;;;33.25;12.57;;;;;;;;;;5014666;28;20116;-38
2023/12/20 04:01:27;;;;;;;35.33;12.38;;;;;;;;;;5014753;28;20563;-38
2023/12/20 04:03:54;;;;;;;30.08;12.32;;;;;;;;;;5014651;28;20504;-38
2023/12/20 04:06:21;;;;;;;31.77;13.25;;;;;;;;;;5014541;28;20054;-38
2023/12/20 04:08:48;;;;;;;31.48;12.52;;;;;;;;;;5014477;28;20088;-38
2023/12/20 04:11:14;;;;;;;25.67;10.85;;;;;;;;;;5014591;28;20054;-38
2023/12/20 04:13:42;;;;;;;31.83;12.23;;;;;;;;;;5014533;28;20033;-38
2023/12/20 04:16:08;;;;;;;29.33;11.15;;;;;;;;;;5014328;28;20042;-38
2023/12/20 04:18:36;;;;;;;24.10;10.32;;;;;;;;;;5014370;28;20767;-38
2023/12/20 04:21:03;;;;;;;21.80;9.45;;;;;;;;;;5014446;28;20041;-38
2023/12/20 04:23:30;;;;;;;26.27;10.18;;;;;;;;;;5014397;28;20026;-39
2023/12/20 04:25:57;;;;;;;25.15;10.02;;;;;;;;;;5014287;28;20084;-39
2023/12/20 04:28:24;;;;;;;25.63;10.25;;;;;;;;;;5014032;28;20030;-38
2023/12/20 04:30:51;;;;;;;21.50;9.60;;;;;;;;;;5014180;28;20112;-38
2023/12/20 04:33:18;;;;;;;23.77;9.45;;;;;;;;;;5007481;28;20058;-38
2023/12/20 04:35:46;;;;;;;21.90;8.65;;;;;;;;;;4994492;28;20030;-38
2023/12/20 04:38:12;;;;;;;23.98;8.57;;;;;;;;;;4994446;28;20046;-38
2023/12/20 04:40:40;;;;;;;22.77;8.30;;;;;;;;;;4994451;28;20547;-38
2023/12/20 04:43:11;;;;;;;22.23;8.63;;;;;;;;;;4994017;28;20030;-40
2023/12/20 04:45:38;;;;;;;20.05;8.50;;;;;;;;;;4994403;28;20564;-38
2023/12/20 04:48:05;;;;;;;20.85;8.10;;;;;;;;;;4994235;28;20034;-38
2023/12/20 04:50:33;;;;;;;19.25;7.03;;;;;;;;;;4998374;28;20042;-38
2023/12/20 04:53:00;;;;;;;23.15;8.52;;;;;;;;;;5033651;28;20514;-38
2023/12/20 04:55:27;;;;;;;23.25;8.65;;;;;;;;;;5033678;28;20029;-38
2023/12/20 04:57:54;;;;;;;20.73;8.40;;;;;;;;;;5033572;28;20034;-38
2023/12/20 05:00:21;;;;;;;20.48;7.00;;;;;;;;;;5033359;28;20059;-38
2023/12/20 05:02:48;;;;;;;18.42;7.15;;;;;;;;;;5033496;28;20029;-38
2023/12/20 05:05:17;;;;;;;18.02;6.88;;;;;;;;;;5033409;28;20025;-38
2023/12/20 05:07:45;;;;;;;21.80;7.22;;;;;;;;;;5033125;28;20140;-38
2023/12/20 05:10:11;;;;;;;14.35;5.90;;;;;;;;;;5033351;28;20029;-38
2023/12/20 05:12:39;;;;;;;14.57;5.70;;;;;;;;;;5033318;28;20031;-38
2023/12/20 05:15:07;;;;;;;16.48;6.28;;;;;;;;;;5033136;28;20130;-38
2023/12/20 05:17:34;;;;;;;15.23;5.78;;;;;;;;;;5033019;28;20053;-38
2023/12/20 05:20:01;;;;;;;12.27;5.72;;;;;;;;;;5033164;28;20048;-38
2023/12/20 05:22:28;;;;;;;14.40;5.75;;;;;;;;;;5033123;28;20510;-38
2023/12/20 05:24:55;;;;;;;12.00;4.90;;;;;;;;;;5033064;28;20518;-38
2023/12/20 05:27:22;;;;;;;9.85;3.47;;;;;;;;;;5032891;28;20060;-38
2023/12/20 05:29:50;;;;;;;10.73;4.00;;;;;;;;;;5032859;28;20041;-38
2023/12/20 05:32:18;;;;;;;9.43;3.53;;;;;;;;;;5032829;28;20033;-38
2023/12/20 05:34:45;;;;;;;11.98;4.35;;;;;;;;;;5032898;28;20026;-38
2023/12/20 05:37:12;;;;;;;9.82;4.07;;;;;;;;;;5032743;28;20088;-38
2023/12/20 05:39:39;;;;;;;9.90;4.30;;;;;;;;;;5032683;28;20116;-39
2023/12/20 05:42:06;;;;;;;10.30;4.28;;;;;;;;;;5032864;28;20112;-38
2023/12/20 05:44:33;;;;;;;11.35;4.15;;;;;;;;;;5032723;28;20032;-38
2023/12/20 05:46:59;;;;;;;10.75;4.15;;;;;;;;;;5032515;28;20029;-38
2023/12/20 05:49:26;;;;;;;9.82;3.85;;;;;;;;;;5032482;28;20075;-38
2023/12/20 05:51:53;;;;;;;10.75;4.78;;;;;;;;;;5032398;28;20085;-38
2023/12/20 05:54:21;;;;;;;9.73;4.43;;;;;;;;;;5014016;28;20423;-38
2023/12/20 05:56:48;;;;;;;9.75;4.40;;;;;;;;;;5032232;28;20037;-38
2023/12/20 05:59:15;;;;;;;10.30;4.10;;;;;;;;;;5032525;28;20025;-38
2023/12/20 06:01:42;;;;;;;9.43;3.97;;;;;;;;;;5048438;28;20539;-39
2023/12/20 06:04:09;;;;;;;7.90;3.70;;;;;;;;;;5072269;28;20501;-38
2023/12/20 06:06:42;;;;;;;11.13;4.43;;;;;;;;;;5072178;28;20062;-38
2023/12/20 06:09:09;;;;;;;8.65;3.50;;;;;;;;;;5072134;28;20041;-38
2023/12/20 06:11:35;;;;;;;10.55;3.67;;;;;;;;;;5072168;28;20035;-38
2023/12/20 06:14:02;;;;;;;7.22;2.97;;;;;;;;;;5071974;28;20421;-38
2023/12/20 06:16:29;;;;;;;8.95;3.42;;;;;;;;;;5071968;28;20363;-38
2023/12/20 06:18:56;;;;;;;6.60;2.97;;;;;;;;;;5072072;28;20167;-38
2023/12/20 06:21:23;;;;;;;7.03;2.97;;;;;;;;;;5072022;28;20029;-38
2023/12/20 06:23:50;;;;;;;6.75;2.80;;;;;;;;;;5071998;28;20021;-38
2023/12/20 06:26:17;;;;;;;5.45;2.83;;;;;;;;;;5071878;28;20031;-38
2023/12/20 06:28:44;;;;;;;6.00;2.92;;;;;;;;;;5071907;28;20082;-38
2023/12/20 06:31:11;;;;;;;8.10;3.45;;;;;;;;;;5071871;28;20119;-38
2023/12/20 06:33:40;;;;;;;8.07;3.50;;;;;;;;;;5071892;28;20064;-38
2023/12/20 06:36:07;;;;;;;7.53;3.10;;;;;;;;;;5071534;28;20055;-38
2023/12/20 06:38:34;;;;;;;7.00;3.33;;;;;;;;;;5071802;28;20024;-38
2023/12/20 06:41:01;;;;;;;6.55;2.85;;;;;;;;;;5053713;28;20379;-38
2023/12/20 06:43:29;;;;;;;7.68;3.22;;;;;;;;;;5071729;28;20024;-38
2023/12/20 06:45:55;;;;;;;5.63;2.92;;;;;;;;;;5071745;28;20032;-38
2023/12/20 06:48:22;;;;;;;6.63;2.75;;;;;;;;;;5071616;28;20509;-38
2023/12/20 06:50:49;;;;;;;6.55;2.42;;;;;;;;;;5071482;28;20131;-38
2023/12/20 06:53:16;;;;;;;7.90;3.10;;;;;;;;;;5071701;28;20021;-39
2023/12/20 06:55:43;;;;;;;5.57;2.78;;;;;;;;;;5071699;28;20094;-38
2023/12/20 06:58:10;;;;;;;5.00;2.22;;;;;;;;;;5071497;28;20565;-38
2023/12/20 07:00:38;;;;;;;5.75;2.70;;;;;;;;;;5071568;28;20036;-38
2023/12/20 07:03:05;;;;;;;5.13;2.20;;;;;;;;;;5071441;28;20371;-38
2023/12/20 07:05:33;;;;;;;5.47;2.22;;;;;;;;;;5074286;28;20036;-38
2023/12/20 07:08:00;;;;;;;4.60;1.85;;;;;;;;;;5075306;28;20044;-38
2023/12/20 07:10:27;;;;;;;4.15;1.70;;;;;;;;;;5075596;28;20020;-38
2023/12/20 07:12:54;;;;;;;5.25;2.22;;;;;;;;;;5075618;28;20021;-38
2023/12/20 07:15:23;;;;;;;6.70;3.10;;;;;;;;;;5075323;28;20501;-38
2023/12/20 07:17:50;;;;;;;4.05;2.05;;;;;;;;;;5075428;28;20021;-38
2023/12/20 07:20:17;;;;;;;5.13;2.13;;;;;;;;;;5075525;28;20468;-38
2023/12/20 07:22:44;;;;;;;5.68;2.13;;;;;;;;;;5075386;28;20032;-38
2023/12/20 07:25:10;;;;;;;5.55;2.25;;;;;;;;;;5075436;28;20031;-38
2023/12/20 07:27:37;;;;;;;3.30;1.75;;;;;;;;;;5057098;28;20048;-38
2023/12/20 07:30:04;;;;;;;4.65;1.98;;;;;;;;;;5075165;28;20106;-38
2023/12/20 07:32:32;;;;;;;4.68;1.88;;;;;;;;;;5075110;28;20094;-38
2023/12/20 07:34:59;;;;;;;4.63;1.98;;;;;;;;;;5075040;28;20115;-38
2023/12/20 07:37:26;;;;;;;3.10;1.70;;;;;;;;;;5075027;28;20028;-38
2023/12/20 07:39:53;;;;;;;6.32;2.17;;;;;;;;;;5075105;28;20121;-38
2023/12/20 07:42:21;;;;;;;5.15;1.70;;;;;;;;;;5074993;28;20046;-38
2023/12/20 07:44:48;;;;;;;5.15;1.90;;;;;;;;;;5074697;28;20513;-38
2023/12/20 07:47:19;;;;;;;3.70;1.98;;;;;;;;;;5074788;28;20021;-38
2023/12/20 07:49:46;;;;;;;4.35;2.10;;;;;;;;;;5074788;28;20040;-38
2023/12/20 07:52:13;;;;;;;5.43;2.10;;;;;;;;;;5074626;28;20413;-38
2023/12/20 07:54:40;;;;;;;5.35;2.08;;;;;;;;;;5074702;28;20104;-38
2023/12/20 07:57:07;;;;;;;2.78;1.65;;;;;;;;;;5074714;28;20758;-38
2023/12/20 07:59:34;;;;;;;3.47;1.75;;;;;;;;;;5074673;28;20033;-38
2023/12/20 08:02:01;;;;;;;3.95;1.88;;;;;;;;;;5074633;28;20389;-38
2023/12/20 08:04:27;;;;;;;3.70;1.65;;;;;;;;;;5074585;28;20517;-38
2023/12/20 08:06:55;;;;;;;3.67;1.75;;;;;;;;;;5074506;28;20028;-38
2023/12/20 08:09:22;;;;;;;3.88;1.70;;;;;;;;;;5074377;28;20036;-38
2023/12/20 08:11:49;;;;;;;2.90;1.30;;;;;;;;;;5074460;28;20482;-38
2023/12/20 08:14:16;;;;;;;3.53;1.50;;;;;;;;;;5074459;28;20040;-38
2023/12/20 08:16:43;;;;;;;3.08;1.50;;;;;;;;;;5073559;28;20040;-38
2023/12/20 08:19:10;;;;;;;3.45;1.63;;;;;;;;;;5074326;28;20033;-38
2023/12/20 08:21:37;;;;;;;2.75;1.45;;;;;;;;;;5074306;28;20509;-38
2023/12/20 08:24:05;;;;;;;3.47;1.50;;;;;;;;;;5074218;28;20115;-38
2023/12/20 08:26:31;;;;;;;3.33;1.58;;;;;;;;;;5074065;28;20031;-38
2023/12/20 08:28:58;;;;;;;3.25;1.60;;;;;;;;;;5074042;28;20033;-38
2023/12/20 08:31:26;;;;;;;3.53;1.58;;;;;;;;;;5074141;28;20564;-38
2023/12/20 08:33:53;;;;;;;2.65;1.20;;;;;;;;;;5056010;28;20033;-38
2023/12/20 08:36:22;;;;;;;3.08;1.60;;;;;;;;;;5074019;28;20051;-38
2023/12/20 08:38:49;;;;;;;4.63;1.52;;;;;;;;;;5073779;28;20055;-38
2023/12/20 08:41:17;;;;;;;3.13;1.80;;;;;;;;;;5073963;28;20040;-38
2023/12/20 08:43:44;;;;;;;3.67;1.40;;;;;;;;;;5073899;28;20032;-38
2023/12/20 08:46:11;;;;;;;2.95;1.33;;;;;;;;;;5073732;28;20074;-38
2023/12/20 08:48:39;;;;;;;3.58;1.63;;;;;;;;;;5073755;28;20044;-38
2023/12/20 08:51:09;;;;;;;3.13;1.70;;;;;;;;;;5073586;28;20101;-38
2023/12/20 08:53:36;;;;;;;3.28;1.42;;;;;;;;;;5073689;28;20390;-38
2023/12/20 08:56:03;;;;;;;4.07;1.77;;;;;;;;;;5073538;28;20505;-38
2023/12/20 08:58:30;;;;;;;3.75;1.65;;;;;;;;;;5073584;28;20509;-38
2023/12/20 09:00:57;;;;;;;2.90;1.60;;;;;;;;;;5073540;28;20063;-38
2023/12/20 09:03:24;;;;;;;3.53;1.45;;;;;;;;;;5073517;28;20635;-38
2023/12/20 09:05:51;;;;;;;3.95;1.50;;;;;;;;;;5073280;28;20542;-38
2023/12/20 09:08:18;;;;;;;3.35;1.60;;;;;;;;;;5073245;28;20032;-38
2023/12/20 09:10:45;;;;;;;3.17;1.40;;;;;;;;;;5073367;28;20047;-39
2023/12/20 09:13:12;;;;;;;2.67;1.40;;;;;;;;;;5073334;28;20016;-38
2023/12/20 09:15:39;;;;;;;2.50;1.40;;;;;;;;;;5073257;28;20487;-38
2023/12/20 09:18:06;;;;;;;1.75;1.17;;;;;;;;;;5073119;28;20103;-38
2023/12/20 09:20:33;;;;;;;2.95;1.23;;;;;;;;;;5073101;28;20474;-38
2023/12/20 09:23:00;;;;;;;3.05;1.35;;;;;;;;;;5072909;28;20059;-38
2023/12/20 09:25:28;;;;;;;3.22;1.42;;;;;;;;;;5073134;28;20070;-39
2023/12/20 09:27:54;;;;;;;2.83;1.40;;;;;;;;;;5071569;28;20040;-38
2023/12/20 09:30:21;;;;;;;3.53;1.50;;;;;;;;;;5072910;28;20039;-38
2023/12/20 09:32:48;;;;;;;3.15;1.17;;;;;;;;;;5072934;28;20474;-38
2023/12/20 09:35:16;;;;;;;2.53;1.25;;;;;;;;;;5054835;28;20036;-38
2023/12/20 09:37:44;;;;;;;3.35;1.45;;;;;;;;;;5072748;28;20032;-38
2023/12/20 09:40:13;;;;;;;2.83;1.15;;;;;;;;;;5072539;28;20543;-38
2023/12/20 09:42:49;;;;;;;3.15;1.40;;;;;;;;;;5072720;28;20028;-38
2023/12/20 09:45:16;;;;;;;2.70;1.10;;;;;;;;;;5072682;28;20528;-38
2023/12/20 09:47:45;;;;;;;2.33;1.15;;;;;;;;;;5072468;28;20131;-38
2023/12/20 09:50:12;;;;;;;4.53;1.70;;;;;;;;;;5072128;28;20033;-38
2023/12/20 09:52:40;;;;;;;3.55;1.80;;;;;;;;;;5072327;28;20048;-38
2023/12/20 09:55:08;;;;;;;2.42;1.20;;;;;;;;;;5072440;28;20547;-38
2023/12/20 09:57:35;;;;;;;1.88;1.10;;;;;;;;;;5072265;28;20443;-38
2023/12/20 10:00:03;;;;;;;2.30;1.30;;;;;;;;;;5037906;28;20040;-38
2023/12/20 10:02:32;;;;;;;2.55;1.20;;;;;;;;;;5042917;28;20032;-38
2023/12/20 10:04:59;;;;;;;4.65;1.38;;;;;;;;;;5032110;28;20033;-38
2023/12/20 10:07:26;;;;;;;2.55;1.27;;;;;;;;;;5032239;28;20026;-38
2023/12/20 10:09:56;;;;;;;4.50;1.77;;;;;;;;;;5032323;28;20071;-38
2023/12/20 10:12:23;;;;;;;1.98;1.10;;;;;;;;;;5044375;28;20048;-40
2023/12/20 10:14:50;;;;;;;4.22;1.30;;;;;;;;;;5042653;28;20108;-40
2023/12/20 10:17:18;;;;;;;3.22;1.50;;;;;;;;;;5041393;28;20048;-40
2023/12/20 10:19:45;;;;;;;3.05;1.10;;;;;;;;;;5022420;28;20033;-41
2023/12/20 10:22:12;;;;;;;2.78;1.17;;;;;;;;;;5048414;28;20044;-40
2023/12/20 10:24:39;;;;;;;3.70;1.50;;;;;;;;;;5051457;28;20115;-39
2023/12/20 10:27:06;;;;;;;3.47;1.30;;;;;;;;;;5050572;28;20356;-39
2023/12/20 10:29:36;;;;;;;3.15;1.58;;;;;;;;;;5048463;28;20075;-40
2023/12/20 10:32:23;;;;;;;2.60;1.30;;;;;;;;;;5051271;28;20128;-39
2023/12/20 10:34:51;;;;;;;2.10;1.17;;;;;;;;;;5039404;28;20099;-39
2023/12/20 10:37:18;;;;;;;3.97;1.45;;;;;;;;;;5047087;28;20032;-40
2023/12/20 10:39:48;;;;;;;6.03;1.45;;;;;;;;;;5050538;28;20502;-40
2023/12/20 10:42:15;;;;;;;6.38;1.80;;;;;;;;;;5035755;28;20036;-41
2023/12/20 10:44:43;;;;;;;5.85;1.60;;;;;;;;;;5036924;28;20032;-41
2023/12/20 10:47:10;;;;;;;4.72;1.83;;;;;;;;;;5038675;28;20029;-39
2023/12/20 10:49:37;;;;;;;7.03;1.77;;;;;;;;;;5047566;28;20045;-44
2023/12/20 10:52:08;;;;;;;9.52;2.17;;;;;;;;;;5050250;28;20083;-45
2023/12/20 10:54:35;;;;;;;5.90;1.90;;;;;;;;;;5045010;28;20507;-43
2023/12/20 10:57:05;;;;;;;8.68;1.55;;;;;;;;;;5050274;28;20091;-43
2023/12/20 10:59:34;;;;;;;11.25;2.08;;;;;;;;;;5050405;28;20029;-42
2023/12/20 11:02:05;;;;;;;9.82;2.25;;;;;;;;;;5050053;28;20078;-42
2023/12/20 11:04:38;;;;;;;5.82;2.13;;;;;;;;;;5048628;28;20382;-39
2023/12/20 11:07:25;;;;;;;7.10;2.00;;;;;;;;;;5050451;28;20033;-40
2023/12/20 11:10:01;;;;;;;7.18;2.72;;;;;;;;;;5050008;28;20364;-43
2023/12/20 11:12:37;;;;;;;5.65;2.25;;;;;;;;;;5050127;28;20574;-42
2023/12/20 11:15:04;;;;;;;4.78;1.92;;;;;;;;;;5047082;28;20045;-43
2023/12/20 11:17:32;;;;;;;7.47;1.83;;;;;;;;;;5050320;28;20040;-40
2023/12/20 11:20:01;;;;;;;4.03;1.90;;;;;;;;;;5032591;28;20037;-40
2023/12/20 11:22:32;;;;;;;6.07;1.90;;;;;;;;;;5049864;28;20098;-39
2023/12/20 11:25:11;;;;;;;5.53;1.90;;;;;;;;;;5051005;28;20554;-40
2023/12/20 11:27:41;;;;;;;6.75;1.80;;;;;;;;;;5049369;28;20029;-40
2023/12/20 11:30:09;;;;;;;10.20;1.88;;;;;;;;;;5050857;28;20048;-39
2023/12/20 11:32:37;;;;;;;7.28;1.80;;;;;;;;;;5050880;28;20033;-39
2023/12/20 11:35:10;;;;;;;3.88;1.40;;;;;;;;;;5051089;28;20124;-39
2023/12/20 11:37:37;;;;;;;8.55;1.70;;;;;;;;;;5049094;28;20029;-39
2023/12/20 11:40:05;;;;;;;6.07;1.50;;;;;;;;;;5051073;28;20029;-39
2023/12/20 11:42:35;;;;;;;4.90;1.52;;;;;;;;;;5050770;28;20061;-40
2023/12/20 11:45:03;;;;;;;3.75;1.30;;;;;;;;;;5051111;28;20033;-40
2023/12/20 11:47:31;;;;;;;4.47;1.77;;;;;;;;;;5048763;28;20044;-38
2023/12/20 11:50:00;;;;;;;4.78;1.50;;;;;;;;;;5050889;28;20095;-40
2023/12/20 11:52:27;;;;;;;3.80;1.65;;;;;;;;;;5052949;28;20049;-39
2023/12/20 11:54:54;;;;;;;3.88;1.42;;;;;;;;;;5054780;28;20035;-39
2023/12/20 11:57:21;;;;;;;4.28;1.70;;;;;;;;;;5054584;28;20021;-39
2023/12/20 11:59:48;;;;;;;3.30;1.40;;;;;;;;;;5054697;28;20037;-39
2023/12/20 12:02:15;;;;;;;5.18;1.67;;;;;;;;;;5036609;28;20433;-40
2023/12/20 12:04:45;;;;;;;4.18;1.50;;;;;;;;;;5036631;28;20455;-39
2023/12/20 12:07:12;;;;;;;4.38;1.77;;;;;;;;;;5054452;28;20035;-39
2023/12/20 12:09:39;;;;;;;2.83;1.10;;;;;;;;;;5054362;28;20087;-39
2023/12/20 12:12:06;;;;;;;2.95;1.40;;;;;;;;;;5054479;28;20429;-39
2023/12/20 12:14:35;;;;;;;3.97;1.58;;;;;;;;;;5054390;28;20033;-39
2023/12/20 12:17:02;;;;;;;3.28;1.40;;;;;;;;;;5054072;28;20475;-40
2023/12/20 12:19:29;;;;;;;3.65;1.23;;;;;;;;;;5054333;28;20107;-39
2023/12/20 12:22:10;;;;;;;4.35;1.52;;;;;;;;;;5054213;28;20025;-39
2023/12/20 12:24:38;;;;;;;5.57;1.48;;;;;;;;;;5054116;28;20111;-39
2023/12/20 12:27:07;;;;;;;5.18;1.40;;;;;;;;;;5054091;28;20127;-39
2023/12/20 12:29:34;;;;;;;2.97;1.20;;;;;;;;;;5054009;28;20040;-39
2023/12/20 12:32:02;;;;;;;4.00;1.65;;;;;;;;;;5053909;28;20021;-39
2023/12/20 12:34:29;;;;;;;4.57;1.45;;;;;;;;;;5053997;28;20518;-39
2023/12/20 12:36:56;;;;;;;4.80;1.63;;;;;;;;;;5053887;28;20491;-39
2023/12/20 12:39:27;;;;;;;4.97;1.40;;;;;;;;;;5053911;28;20055;-40
2023/12/20 12:41:54;;;;;;;5.93;1.45;;;;;;;;;;5053923;28;20075;-39
2023/12/20 12:44:23;;;;;;;3.35;1.50;;;;;;;;;;5053747;28;20047;-39
2023/12/20 12:46:51;;;;;;;3.22;1.65;;;;;;;;;;5053847;28;20044;-39
2023/12/20 12:49:18;;;;;;;2.55;1.13;;;;;;;;;;5053702;28;20530;-40
2023/12/20 12:51:45;;;;;;;3.10;1.40;;;;;;;;;;5053296;28;20044;-39
2023/12/20 12:54:13;;;;;;;3.47;1.25;;;;;;;;;;5052528;28;20025;-39
2023/12/20 12:56:40;;;;;;;4.28;1.52;;;;;;;;;;5047140;28;20086;-39
2023/12/20 12:59:07;;;;;;;2.90;1.35;;;;;;;;;;5044199;28;20031;-40
2023/12/20 13:01:34;;;;;;;3.13;1.45;;;;;;;;;;5038462;28;20044;-39
2023/12/20 13:04:06;;;;;;;2.85;1.30;;;;;;;;;;5032985;28;20082;-39
2023/12/20 13:06:33;;;;;;;;;;;;;;;;;;5050304;28;20029;-39
2023/12/20 13:09:00;;;;;;;3.70;1.70;;;;;;;;;;5051684;28;19916;-39
2023/12/20 13:11:26;;;;;;;5.03;1.63;;;;;;;;;;5049176;28;20059;-39
2023/12/20 13:13:53;;;;;;;2.22;1.10;;;;;;;;;;5051779;28;20024;-38
2023/12/20 13:16:21;;;;;;;3.30;1.52;;;;;;;;;;5051526;28;20064;-36
2023/12/20 13:18:48;;;;;;;3.80;1.50;;;;;;;;;;5031553;28;20086;-38
2023/12/20 13:21:15;;;;;;;3.40;1.48;;;;;;;;;;5049722;28;20039;-38
2023/12/20 13:23:41;;;;;;;5.47;1.50;;;;;;;;;;5043157;28;20033;-39
2023/12/20 13:26:08;;;;;;;4.60;1.77;;;;;;;;;;5051938;28;20021;-37
2023/12/20 13:28:36;;;;;;;4.20;1.13;;;;;;;;;;5051585;28;20418;-37
2023/12/20 13:31:03;;;;;;;4.38;1.50;;;;;;;;;;5051762;28;20391;-37
2023/12/20 13:33:30;;;;;;;3.95;1.60;;;;;;;;;;5051288;28;20033;-38
2023/12/20 13:35:58;;;;;;;4.10;1.40;;;;;;;;;;5045860;28;20021;-37
2023/12/20 13:38:25;;;;;;;3.67;1.38;;;;;;;;;;5045859;28;20087;-37
2023/12/20 13:40:52;;;;;;;3.40;1.42;;;;;;;;;;5041301;28;20047;-38
2023/12/20 13:43:20;;;;;;;4.53;1.27;;;;;;;;;;5036388;28;20399;-37
2023/12/20 13:45:48;;;;;;;3.35;1.40;;;;;;;;;;5034011;28;20040;-38
2023/12/20 13:48:15;;;;;;;6.53;1.83;;;;;;;;;;5043947;28;20487;-37
2023/12/20 13:50:42;;;;;;;5.25;1.80;;;;;;;;;;5036226;28;20102;-37
2023/12/20 13:53:09;;;;;;;4.70;1.55;;;;;;;;;;5034059;28;20037;-39
2023/12/20 13:55:36;;;;;;;5.00;1.30;;;;;;;;;;5033912;28;20036;-39
2023/12/20 13:58:03;;;;;;;6.68;1.70;;;;;;;;;;5036211;28;20029;-39
2023/12/20 14:00:29;;;;;;;2.78;1.20;;;;;;;;;;5039293;28;20033;-39
2023/12/20 14:02:57;;;;;;;5.95;1.30;;;;;;;;;;5038893;28;20107;-39
2023/12/20 14:05:26;;;;;;;4.05;1.40;;;;;;;;;;5046568;28;20490;-39
2023/12/20 14:07:53;;;;;;;3.80;1.30;;;;;;;;;;5051610;28;20036;-39
2023/12/20 14:10:20;;;;;;;6.07;1.52;;;;;;;;;;5049984;28;20044;-37
2023/12/20 14:12:47;;;;;;;4.18;1.40;;;;;;;;;;5051631;28;20033;-37
2023/12/20 14:15:14;;;;;;;3.95;1.45;;;;;;;;;;5051199;28;20086;-37
2023/12/20 14:17:42;;;;;;;6.18;1.60;;;;;;;;;;5051803;28;20048;-37
2023/12/20 14:20:09;;;;;;;4.97;1.77;;;;;;;;;;5051699;28;20091;-37
2023/12/20 14:22:38;;;;;;;5.70;1.50;;;;;;;;;;5033715;28;20029;-37
2023/12/20 14:25:06;;;;;;;4.50;1.50;;;;;;;;;;5051665;28;20043;-37
2023/12/20 14:27:33;;;;;;;4.10;1.48;;;;;;;;;;5051554;28;20394;-37
2023/12/20 14:30:00;;;;;;;4.88;1.17;;;;;;;;;;5051426;28;20052;-37
2023/12/20 14:32:27;;;;;;;4.18;1.48;;;;;;;;;;5041083;28;20533;-37
2023/12/20 14:34:55;;;;;;;4.53;1.27;;;;;;;;;;5049389;28;20036;-37
2023/12/20 14:37:22;;;;;;;5.65;1.08;;;;;;;;;;5051380;28;20033;-37